sensor_id;sensor_type;location;lat;lon;timestamp;P1;durP1;ratioP1;P2;durP2;ratioP2
50231;SDS011;36118;56.468;84.952;2023-04-01T00:03:27;19.98;;;4.40;;
50231;SDS011;36118;56.468;84.952;2023-04-01T00:08:31;20.90;;;5.55;;
50231;SDS011;36118;56.468;84.952;2023-04-01T00:13:34;12.35;;;3.90;;
50231;SDS011;36118;56.468;84.952;2023-04-01T00:18:37;19.00;;;5.37;;
50231;SDS011;36118;56.468;84.952;2023-04-01T00:23:40;18.27;;;6.03;;
50231;SDS011;36118;56.468;84.952;2023-04-01T00:28:43;15.48;;;5.68;;
50231;SDS011;36118;56.468;84.952;2023-04-01T00:33:47;25.52;;;7.72;;
50231;SDS011;36118;56.468;84.952;2023-04-01T00:38:50;27.92;;;6.15;;
50231;SDS011;36118;56.468;84.952;2023-04-01T00:44:11;26.20;;;6.82;;
50231;SDS011;36118;56.468;84.952;2023-04-01T00:49:30;19.80;;;6.28;;
50231;SDS011;36118;56.468;84.952;2023-04-01T00:54:38;29.05;;;8.77;;
50231;SDS011;36118;56.468;84.952;2023-04-01T00:59:47;35.33;;;7.95;;
50231;SDS011;36118;56.468;84.952;2023-04-01T01:04:51;33.08;;;7.95;;
50231;SDS011;36118;56.468;84.952;2023-04-01T01:10:02;20.00;;;6.50;;
50231;SDS011;36118;56.468;84.952;2023-04-01T01:32:00;44.97;;;11.23;;
50231;SDS011;36118;56.468;84.952;2023-04-01T01:37:10;41.85;;;11.60;;
50231;SDS011;36118;56.468;84.952;2023-04-01T01:42:15;37.00;;;11.15;;
50231;SDS011;36118;56.468;84.952;2023-04-01T01:47:20;44.88;;;12.30;;
50231;SDS011;36118;56.468;84.952;2023-04-01T01:57:28;37.13;;;13.32;;
50231;SDS011;36118;56.468;84.952;2023-04-01T02:02:34;42.47;;;15.82;;
50231;SDS011;36118;56.468;84.952;2023-04-01T02:07:37;49.83;;;16.87;;
50231;SDS011;36118;56.468;84.952;2023-04-01T02:12:42;48.60;;;16.92;;
50231;SDS011;36118;56.468;84.952;2023-04-01T02:17:47;52.30;;;17.70;;
50231;SDS011;36118;56.468;84.952;2023-04-01T02:22:53;53.45;;;19.50;;
50231;SDS011;36118;56.468;84.952;2023-04-01T02:27:57;65.60;;;21.45;;
50231;SDS011;36118;56.468;84.952;2023-04-01T02:33:02;62.25;;;21.90;;
50231;SDS011;36118;56.468;84.952;2023-04-01T02:38:06;64.47;;;24.27;;
50231;SDS011;36118;56.468;84.952;2023-04-01T02:43:09;59.13;;;23.40;;
50231;SDS011;36118;56.468;84.952;2023-04-01T02:48:12;57.53;;;18.38;;
50231;SDS011;36118;56.468;84.952;2023-04-01T02:53:16;57.30;;;20.58;;
50231;SDS011;36118;56.468;84.952;2023-04-01T02:58:19;55.80;;;18.50;;
50231;SDS011;36118;56.468;84.952;2023-04-01T03:03:21;49.22;;;16.48;;
50231;SDS011;36118;56.468;84.952;2023-04-01T03:08:24;45.17;;;14.20;;
50231;SDS011;36118;56.468;84.952;2023-04-01T03:13:27;17.27;;;6.15;;
50231;SDS011;36118;56.468;84.952;2023-04-01T03:18:30;44.13;;;14.25;;
50231;SDS011;36118;56.468;84.952;2023-04-01T03:23:33;39.53;;;16.08;;
50231;SDS011;36118;56.468;84.952;2023-04-01T03:28:36;48.75;;;17.42;;
50231;SDS011;36118;56.468;84.952;2023-04-01T03:33:39;36.42;;;11.65;;
50231;SDS011;36118;56.468;84.952;2023-04-01T03:38:42;19.45;;;7.78;;
50231;SDS011;36118;56.468;84.952;2023-04-01T03:43:49;39.15;;;11.30;;
50231;SDS011;36118;56.468;84.952;2023-04-01T03:48:52;36.28;;;11.02;;
50231;SDS011;36118;56.468;84.952;2023-04-01T03:53:55;28.40;;;12.18;;
50231;SDS011;36118;56.468;84.952;2023-04-01T03:58:58;20.60;;;8.38;;
50231;SDS011;36118;56.468;84.952;2023-04-01T04:04:03;15.45;;;5.18;;
50231;SDS011;36118;56.468;84.952;2023-04-01T04:09:06;24.88;;;9.02;;
50231;SDS011;36118;56.468;84.952;2023-04-01T04:14:11;23.48;;;9.32;;
50231;SDS011;36118;56.468;84.952;2023-04-01T04:19:14;22.88;;;8.70;;
50231;SDS011;36118;56.468;84.952;2023-04-01T04:24:17;14.25;;;5.30;;
50231;SDS011;36118;56.468;84.952;2023-04-01T04:29:41;24.77;;;7.88;;
50231;SDS011;36118;56.468;84.952;2023-04-01T04:34:44;12.35;;;4.28;;
50231;SDS011;36118;56.468;84.952;2023-04-01T04:39:47;13.38;;;5.55;;
50231;SDS011;36118;56.468;84.952;2023-04-01T04:44:49;11.52;;;3.33;;
50231;SDS011;36118;56.468;84.952;2023-04-01T04:49:52;8.20;;;2.53;;
50231;SDS011;36118;56.468;84.952;2023-04-01T04:54:55;7.47;;;0.77;;
50231;SDS011;36118;56.468;84.952;2023-04-01T04:59:58;7.18;;;2.17;;
50231;SDS011;36118;56.468;84.952;2023-04-01T05:05:28;7.32;;;2.13;;
50231;SDS011;36118;56.468;84.952;2023-04-01T05:10:32;2.80;;;0.90;;
50231;SDS011;36118;56.468;84.952;2023-04-01T05:15:36;7.10;;;2.80;;
50231;SDS011;36118;56.468;84.952;2023-04-01T05:20:45;7.68;;;1.40;;
50231;SDS011;36118;56.468;84.952;2023-04-01T05:25:51;10.77;;;2.63;;
50231;SDS011;36118;56.468;84.952;2023-04-01T05:30:57;9.68;;;2.25;;
50231;SDS011;36118;56.468;84.952;2023-04-01T05:36:11;8.85;;;2.50;;
50231;SDS011;36118;56.468;84.952;2023-04-01T05:41:16;8.38;;;2.42;;
50231;SDS011;36118;56.468;84.952;2023-04-01T05:46:20;10.00;;;2.25;;
50231;SDS011;36118;56.468;84.952;2023-04-01T05:51:29;4.72;;;1.15;;
50231;SDS011;36118;56.468;84.952;2023-04-01T05:56:32;8.45;;;2.92;;
50231;SDS011;36118;56.468;84.952;2023-04-01T06:01:35;16.15;;;5.25;;
50231;SDS011;36118;56.468;84.952;2023-04-01T06:06:38;15.23;;;5.53;;
50231;SDS011;36118;56.468;84.952;2023-04-01T06:55:35;9.68;;;2.28;;
50231;SDS011;36118;56.468;84.952;2023-04-01T07:01:14;23.35;;;4.68;;
50231;SDS011;36118;56.468;84.952;2023-04-01T07:06:24;15.25;;;3.00;;
50231;SDS011;36118;56.468;84.952;2023-04-01T07:11:31;14.05;;;4.13;;
50231;SDS011;36118;56.468;84.952;2023-04-01T07:16:56;9.65;;;3.50;;
50231;SDS011;36118;56.468;84.952;2023-04-01T07:22:14;10.03;;;3.50;;
50231;SDS011;36118;56.468;84.952;2023-04-01T07:27:41;9.32;;;2.63;;
50231;SDS011;36118;56.468;84.952;2023-04-01T07:33:04;12.68;;;3.05;;
50231;SDS011;36118;56.468;84.952;2023-04-01T07:38:48;9.38;;;2.83;;
50231;SDS011;36118;56.468;84.952;2023-04-01T07:55:36;11.02;;;3.03;;
50231;SDS011;36118;56.468;84.952;2023-04-01T08:22:51;10.40;;;2.72;;
50231;SDS011;36118;56.468;84.952;2023-04-01T08:33:27;7.07;;;2.30;;
50231;SDS011;36118;56.468;84.952;2023-04-01T08:38:51;6.05;;;1.63;;
50231;SDS011;36118;56.468;84.952;2023-04-01T08:44:16;7.93;;;1.90;;
50231;SDS011;36118;56.468;84.952;2023-04-01T08:49:53;3.67;;;1.45;;
50231;SDS011;36118;56.468;84.952;2023-04-01T08:55:24;18.60;;;2.78;;
50231;SDS011;36118;56.468;84.952;2023-04-01T09:00:45;12.20;;;2.40;;
50231;SDS011;36118;56.468;84.952;2023-04-01T09:28:19;13.02;;;2.50;;
50231;SDS011;36118;56.468;84.952;2023-04-01T09:55:01;13.90;;;4.20;;
50231;SDS011;36118;56.468;84.952;2023-04-01T10:11:36;15.23;;;4.45;;
50231;SDS011;36118;56.468;84.952;2023-04-01T11:01:03;14.95;;;4.13;;
50231;SDS011;36118;56.468;84.952;2023-04-01T11:33:42;16.90;;;4.35;;
50231;SDS011;36118;56.468;84.952;2023-04-01T11:39:10;21.05;;;5.30;;
50231;SDS011;36118;56.468;84.952;2023-04-01T11:44:38;15.15;;;3.83;;
50231;SDS011;36118;56.468;84.952;2023-04-01T11:49:51;25.45;;;4.15;;
50231;SDS011;36118;56.468;84.952;2023-04-01T11:55:24;15.18;;;3.60;;
50231;SDS011;36118;56.468;84.952;2023-04-01T12:06:24;17.00;;;3.85;;
50231;SDS011;36118;56.468;84.952;2023-04-01T12:11:39;15.88;;;3.85;;
50231;SDS011;36118;56.468;84.952;2023-04-01T12:55:01;32.42;;;12.82;;
50231;SDS011;36118;56.468;84.952;2023-04-01T13:00:25;16.38;;;5.85;;
50231;SDS011;36118;56.468;84.952;2023-04-01T13:11:32;22.13;;;7.63;;
50231;SDS011;36118;56.468;84.952;2023-04-01T13:17:01;21.02;;;5.70;;
50231;SDS011;36118;56.468;84.952;2023-04-01T13:28:15;37.33;;;6.28;;
50231;SDS011;36118;56.468;84.952;2023-04-01T13:33:25;21.25;;;5.03;;
50231;SDS011;36118;56.468;84.952;2023-04-01T13:38:49;19.02;;;3.95;;
50231;SDS011;36118;56.468;84.952;2023-04-01T13:49:43;13.13;;;3.50;;
50231;SDS011;36118;56.468;84.952;2023-04-01T14:06:13;22.48;;;4.60;;
50231;SDS011;36118;56.468;84.952;2023-04-01T14:22:25;52.55;;;5.72;;
50231;SDS011;36118;56.468;84.952;2023-04-01T14:39:12;38.42;;;7.28;;
50231;SDS011;36118;56.468;84.952;2023-04-01T14:44:42;38.53;;;6.60;;
50231;SDS011;36118;56.468;84.952;2023-04-01T14:50:22;41.13;;;6.35;;
50231;SDS011;36118;56.468;84.952;2023-04-01T14:55:31;34.15;;;5.85;;
50231;SDS011;36118;56.468;84.952;2023-04-01T15:27:51;12.02;;;3.97;;
50231;SDS011;36118;56.468;84.952;2023-04-01T15:38:29;21.80;;;5.20;;
50231;SDS011;36118;56.468;84.952;2023-04-01T15:54:06;15.02;;;5.07;;
50231;SDS011;36118;56.468;84.952;2023-04-01T16:00:02;16.37;;;5.10;;
50231;SDS011;36118;56.468;84.952;2023-04-01T16:48:15;23.20;;;7.40;;
50231;SDS011;36118;56.468;84.952;2023-04-01T16:54:04;18.90;;;6.13;;
50231;SDS011;36118;56.468;84.952;2023-04-01T16:58:55;24.67;;;5.28;;
50231;SDS011;36118;56.468;84.952;2023-04-01T17:09:51;16.17;;;5.07;;
50231;SDS011;36118;56.468;84.952;2023-04-01T17:20:26;16.20;;;5.57;;
50231;SDS011;36118;56.468;84.952;2023-04-01T17:31:01;15.40;;;4.25;;
50231;SDS011;36118;56.468;84.952;2023-04-01T17:57:29;12.13;;;2.85;;
50231;SDS011;36118;56.468;84.952;2023-04-01T18:08:16;12.27;;;3.20;;
50231;SDS011;36118;56.468;84.952;2023-04-01T18:18:58;9.23;;;3.03;;
50231;SDS011;36118;56.468;84.952;2023-04-01T18:24:13;13.87;;;3.07;;
50231;SDS011;36118;56.468;84.952;2023-04-01T18:34:42;9.30;;;2.85;;
50231;SDS011;36118;56.468;84.952;2023-04-01T18:45:27;8.95;;;3.13;;
50231;SDS011;36118;56.468;84.952;2023-04-01T18:50:36;11.73;;;2.97;;
50231;SDS011;36118;56.468;84.952;2023-04-01T18:55:47;7.53;;;2.65;;
50231;SDS011;36118;56.468;84.952;2023-04-01T19:06:14;7.53;;;2.58;;
50231;SDS011;36118;56.468;84.952;2023-04-01T19:21:56;7.22;;;2.17;;
50231;SDS011;36118;56.468;84.952;2023-04-01T19:59:35;8.10;;;2.20;;
50231;SDS011;36118;56.468;84.952;2023-04-01T20:04:48;4.70;;;1.80;;
50231;SDS011;36118;56.468;84.952;2023-04-01T20:09:54;4.95;;;1.73;;
50231;SDS011;36118;56.468;84.952;2023-04-01T20:15:04;9.88;;;2.13;;
50231;SDS011;36118;56.468;84.952;2023-04-01T20:20:24;6.75;;;1.80;;
50231;SDS011;36118;56.468;84.952;2023-04-01T20:46:44;18.15;;;3.10;;
50231;SDS011;36118;56.468;84.952;2023-04-01T21:02:44;8.95;;;2.53;;
50231;SDS011;36118;56.468;84.952;2023-04-01T21:23:57;5.10;;;1.90;;
50231;SDS011;36118;56.468;84.952;2023-04-01T21:56:43;24.27;;;3.00;;
50231;SDS011;36118;56.468;84.952;2023-04-01T22:13:04;9.75;;;2.95;;
50231;SDS011;36118;56.468;84.952;2023-04-01T22:18:21;14.45;;;3.22;;
50231;SDS011;36118;56.468;84.952;2023-04-01T22:23:58;7.65;;;2.33;;
50231;SDS011;36118;56.468;84.952;2023-04-01T22:29:23;12.32;;;3.40;;
50231;SDS011;36118;56.468;84.952;2023-04-01T22:50:18;11.32;;;3.35;;
50231;SDS011;36118;56.468;84.952;2023-04-01T22:55:29;8.95;;;3.40;;
50231;SDS011;36118;56.468;84.952;2023-04-01T23:00:42;14.00;;;3.42;;
50231;SDS011;36118;56.468;84.952;2023-04-01T23:05:55;12.60;;;3.30;;
50231;SDS011;36118;56.468;84.952;2023-04-01T23:10:59;14.80;;;3.70;;
50231;SDS011;36118;56.468;84.952;2023-04-01T23:16:05;16.95;;;3.70;;
50231;SDS011;36118;56.468;84.952;2023-04-01T23:21:12;11.05;;;3.15;;
50231;SDS011;36118;56.468;84.952;2023-04-01T23:26:30;26.10;;;4.45;;
50231;SDS011;36118;56.468;84.952;2023-04-01T23:31:58;14.52;;;3.88;;
50231;SDS011;36118;56.468;84.952;2023-04-01T23:37:03;21.08;;;4.07;;
50231;SDS011;36118;56.468;84.952;2023-04-01T23:42:15;12.48;;;3.80;;
50231;SDS011;36118;56.468;84.952;2023-04-01T23:47:26;23.17;;;4.18;;
50231;SDS011;36118;56.468;84.952;2023-04-01T23:52:36;12.98;;;4.38;;
50231;SDS011;36118;56.468;84.952;2023-04-01T23:57:43;15.05;;;4.43;;
